sensor_id;sensor_type;location;lat;lon;timestamp;P1;durP1;ratioP1;P2;durP2;ratioP2
20080;SDS011;10200;49.232;9.222;2023-02-28T00:00:19;3.47;;;1.97;;
20080;SDS011;10200;49.232;9.222;2023-02-28T00:02:46;5.10;;;2.60;;
20080;SDS011;10200;49.232;9.222;2023-02-28T00:05:13;4.40;;;2.77;;
20080;SDS011;10200;49.232;9.222;2023-02-28T00:07:40;4.20;;;2.73;;
20080;SDS011;10200;49.232;9.222;2023-02-28T00:10:07;3.03;;;2.50;;
20080;SDS011;10200;49.232;9.222;2023-02-28T00:12:38;3.10;;;2.27;;
20080;SDS011;10200;49.232;9.222;2023-02-28T00:15:09;6.00;;;2.37;;
20080;SDS011;10200;49.232;9.222;2023-02-28T00:17:36;3.40;;;2.63;;
20080;SDS011;10200;49.232;9.222;2023-02-28T00:20:02;5.83;;;2.53;;
20080;SDS011;10200;49.232;9.222;2023-02-28T00:22:29;3.83;;;2.93;;
20080;SDS011;10200;49.232;9.222;2023-02-28T00:24:55;3.40;;;2.40;;
20080;SDS011;10200;49.232;9.222;2023-02-28T00:27:21;4.87;;;2.43;;
20080;SDS011;10200;49.232;9.222;2023-02-28T00:29:47;4.50;;;2.90;;
20080;SDS011;10200;49.232;9.222;2023-02-28T00:32:13;3.67;;;2.80;;
20080;SDS011;10200;49.232;9.222;2023-02-28T00:34:39;3.60;;;2.53;;
20080;SDS011;10200;49.232;9.222;2023-02-28T00:37:08;4.27;;;2.57;;
20080;SDS011;10200;49.232;9.222;2023-02-28T00:39:35;3.63;;;2.77;;
20080;SDS011;10200;49.232;9.222;2023-02-28T00:42:02;3.50;;;2.60;;
20080;SDS011;10200;49.232;9.222;2023-02-28T00:44:28;6.97;;;2.93;;
20080;SDS011;10200;49.232;9.222;2023-02-28T00:46:54;4.40;;;2.30;;
20080;SDS011;10200;49.232;9.222;2023-02-28T00:49:21;3.90;;;2.90;;
20080;SDS011;10200;49.232;9.222;2023-02-28T00:51:48;4.63;;;2.67;;
20080;SDS011;10200;49.232;9.222;2023-02-28T00:54:13;4.13;;;2.83;;
20080;SDS011;10200;49.232;9.222;2023-02-28T00:56:39;3.60;;;2.90;;
20080;SDS011;10200;49.232;9.222;2023-02-28T00:59:05;3.43;;;2.80;;
20080;SDS011;10200;49.232;9.222;2023-02-28T01:01:30;3.67;;;2.97;;
20080;SDS011;10200;49.232;9.222;2023-02-28T01:03:56;3.33;;;2.37;;
20080;SDS011;10200;49.232;9.222;2023-02-28T01:06:22;3.20;;;2.77;;
20080;SDS011;10200;49.232;9.222;2023-02-28T01:08:47;4.10;;;2.80;;
20080;SDS011;10200;49.232;9.222;2023-02-28T01:11:14;3.43;;;2.70;;
20080;SDS011;10200;49.232;9.222;2023-02-28T01:13:41;4.03;;;3.17;;
20080;SDS011;10200;49.232;9.222;2023-02-28T01:16:07;4.60;;;2.90;;
20080;SDS011;10200;49.232;9.222;2023-02-28T01:18:33;5.33;;;2.97;;
20080;SDS011;10200;49.232;9.222;2023-02-28T01:21:06;4.80;;;2.93;;
20080;SDS011;10200;49.232;9.222;2023-02-28T01:23:37;4.03;;;3.33;;
20080;SDS011;10200;49.232;9.222;2023-02-28T01:26:05;4.33;;;2.50;;
20080;SDS011;10200;49.232;9.222;2023-02-28T01:28:31;2.57;;;2.13;;
20080;SDS011;10200;49.232;9.222;2023-02-28T01:30:56;3.77;;;2.70;;
20080;SDS011;10200;49.232;9.222;2023-02-28T01:33:22;5.20;;;3.23;;
20080;SDS011;10200;49.232;9.222;2023-02-28T01:35:47;3.63;;;2.90;;
20080;SDS011;10200;49.232;9.222;2023-02-28T01:38:13;4.20;;;2.93;;
20080;SDS011;10200;49.232;9.222;2023-02-28T01:40:39;5.23;;;2.90;;
20080;SDS011;10200;49.232;9.222;2023-02-28T01:43:07;3.73;;;3.10;;
20080;SDS011;10200;49.232;9.222;2023-02-28T01:45:44;4.80;;;3.13;;
20080;SDS011;10200;49.232;9.222;2023-02-28T01:48:09;6.30;;;3.73;;
20080;SDS011;10200;49.232;9.222;2023-02-28T01:50:36;3.73;;;2.40;;
20080;SDS011;10200;49.232;9.222;2023-02-28T01:53:07;6.07;;;3.27;;
20080;SDS011;10200;49.232;9.222;2023-02-28T01:55:37;4.00;;;2.93;;
20080;SDS011;10200;49.232;9.222;2023-02-28T01:58:04;3.20;;;2.57;;
20080;SDS011;10200;49.232;9.222;2023-02-28T02:00:31;3.93;;;2.90;;
20080;SDS011;10200;49.232;9.222;2023-02-28T02:03:04;4.40;;;2.87;;
20080;SDS011;10200;49.232;9.222;2023-02-28T02:05:32;4.73;;;3.30;;
20080;SDS011;10200;49.232;9.222;2023-02-28T02:08:02;5.23;;;3.20;;
20080;SDS011;10200;49.232;9.222;2023-02-28T02:10:36;3.87;;;3.07;;
20080;SDS011;10200;49.232;9.222;2023-02-28T02:18:52;5.50;;;3.40;;
20080;SDS011;10200;49.232;9.222;2023-02-28T02:32:09;4.80;;;3.23;;
20080;SDS011;10200;49.232;9.222;2023-02-28T02:37:38;4.37;;;3.50;;
20080;SDS011;10200;49.232;9.222;2023-02-28T02:40:19;6.33;;;3.63;;
20080;SDS011;10200;49.232;9.222;2023-02-28T02:45:33;5.47;;;3.60;;
20080;SDS011;10200;49.232;9.222;2023-02-28T02:48:12;4.27;;;3.00;;
20080;SDS011;10200;49.232;9.222;2023-02-28T02:50:49;4.07;;;2.70;;
20080;SDS011;10200;49.232;9.222;2023-02-28T02:53:18;3.77;;;3.10;;
20080;SDS011;10200;49.232;9.222;2023-02-28T02:55:49;4.33;;;3.47;;
20080;SDS011;10200;49.232;9.222;2023-02-28T02:58:20;5.30;;;3.13;;
20080;SDS011;10200;49.232;9.222;2023-02-28T03:00:53;3.27;;;2.53;;
20080;SDS011;10200;49.232;9.222;2023-02-28T03:03:22;4.50;;;3.40;;
20080;SDS011;10200;49.232;9.222;2023-02-28T03:05:55;5.20;;;3.83;;
20080;SDS011;10200;49.232;9.222;2023-02-28T03:08:26;8.53;;;4.03;;
20080;SDS011;10200;49.232;9.222;2023-02-28T03:10:56;6.53;;;3.33;;
20080;SDS011;10200;49.232;9.222;2023-02-28T03:13:34;4.10;;;3.00;;
20080;SDS011;10200;49.232;9.222;2023-02-28T03:21:24;6.63;;;4.23;;
20080;SDS011;10200;49.232;9.222;2023-02-28T03:26:36;5.20;;;3.50;;
20080;SDS011;10200;49.232;9.222;2023-02-28T03:32:14;4.87;;;3.53;;
20080;SDS011;10200;49.232;9.222;2023-02-28T03:35:14;6.60;;;4.00;;
20080;SDS011;10200;49.232;9.222;2023-02-28T03:37:46;7.53;;;3.50;;
20080;SDS011;10200;49.232;9.222;2023-02-28T03:40:19;6.07;;;3.60;;
20080;SDS011;10200;49.232;9.222;2023-02-28T03:42:48;4.80;;;4.13;;
20080;SDS011;10200;49.232;9.222;2023-02-28T03:45:35;5.67;;;3.30;;
20080;SDS011;10200;49.232;9.222;2023-02-28T03:48:10;7.60;;;3.50;;
20080;SDS011;10200;49.232;9.222;2023-02-28T03:50:47;5.13;;;3.63;;
20080;SDS011;10200;49.232;9.222;2023-02-28T03:56:06;5.60;;;3.70;;
20080;SDS011;10200;49.232;9.222;2023-02-28T03:58:47;4.80;;;3.60;;
20080;SDS011;10200;49.232;9.222;2023-02-28T04:01:28;7.33;;;4.30;;
20080;SDS011;10200;49.232;9.222;2023-02-28T04:04:01;5.40;;;3.43;;
20080;SDS011;10200;49.232;9.222;2023-02-28T04:06:27;5.47;;;4.10;;
20080;SDS011;10200;49.232;9.222;2023-02-28T04:08:57;5.40;;;4.13;;
20080;SDS011;10200;49.232;9.222;2023-02-28T04:11:24;6.03;;;4.17;;
20080;SDS011;10200;49.232;9.222;2023-02-28T04:14:04;8.07;;;4.23;;
20080;SDS011;10200;49.232;9.222;2023-02-28T04:16:31;6.27;;;4.43;;
20080;SDS011;10200;49.232;9.222;2023-02-28T04:18:58;6.60;;;3.73;;
20080;SDS011;10200;49.232;9.222;2023-02-28T04:21:27;5.43;;;3.60;;
20080;SDS011;10200;49.232;9.222;2023-02-28T04:23:53;4.27;;;3.70;;
20080;SDS011;10200;49.232;9.222;2023-02-28T04:26:19;5.10;;;4.10;;
20080;SDS011;10200;49.232;9.222;2023-02-28T04:28:45;5.20;;;3.73;;
20080;SDS011;10200;49.232;9.222;2023-02-28T04:31:11;5.17;;;4.03;;
20080;SDS011;10200;49.232;9.222;2023-02-28T04:33:36;4.73;;;3.57;;
20080;SDS011;10200;49.232;9.222;2023-02-28T04:36:02;6.07;;;4.17;;
20080;SDS011;10200;49.232;9.222;2023-02-28T04:38:32;5.13;;;3.53;;
20080;SDS011;10200;49.232;9.222;2023-02-28T04:40:59;9.30;;;3.53;;
20080;SDS011;10200;49.232;9.222;2023-02-28T04:43:26;5.70;;;3.87;;
20080;SDS011;10200;49.232;9.222;2023-02-28T04:45:53;4.10;;;3.40;;
20080;SDS011;10200;49.232;9.222;2023-02-28T04:48:21;6.30;;;4.17;;
20080;SDS011;10200;49.232;9.222;2023-02-28T04:50:52;7.63;;;3.97;;
20080;SDS011;10200;49.232;9.222;2023-02-28T04:53:17;5.03;;;3.70;;
20080;SDS011;10200;49.232;9.222;2023-02-28T04:55:43;5.07;;;4.10;;
20080;SDS011;10200;49.232;9.222;2023-02-28T04:58:09;5.47;;;3.97;;
20080;SDS011;10200;49.232;9.222;2023-02-28T05:00:35;6.37;;;4.33;;
20080;SDS011;10200;49.232;9.222;2023-02-28T05:03:00;5.93;;;4.10;;
20080;SDS011;10200;49.232;9.222;2023-02-28T05:05:26;5.43;;;3.87;;
20080;SDS011;10200;49.232;9.222;2023-02-28T05:07:51;5.57;;;3.83;;
20080;SDS011;10200;49.232;9.222;2023-02-28T05:10:18;8.93;;;4.43;;
20080;SDS011;10200;49.232;9.222;2023-02-28T05:12:44;4.60;;;3.87;;
20080;SDS011;10200;49.232;9.222;2023-02-28T05:15:12;5.37;;;3.80;;
20080;SDS011;10200;49.232;9.222;2023-02-28T05:17:39;5.37;;;4.00;;
20080;SDS011;10200;49.232;9.222;2023-02-28T05:20:05;5.17;;;3.83;;
20080;SDS011;10200;49.232;9.222;2023-02-28T05:22:31;8.47;;;4.07;;
20080;SDS011;10200;49.232;9.222;2023-02-28T05:24:57;6.63;;;4.33;;
20080;SDS011;10200;49.232;9.222;2023-02-28T05:27:22;9.37;;;3.90;;
20080;SDS011;10200;49.232;9.222;2023-02-28T05:29:48;5.70;;;4.20;;
20080;SDS011;10200;49.232;9.222;2023-02-28T05:32:14;6.03;;;3.97;;
20080;SDS011;10200;49.232;9.222;2023-02-28T05:34:40;7.20;;;4.43;;
20080;SDS011;10200;49.232;9.222;2023-02-28T05:37:07;8.47;;;4.37;;
20080;SDS011;10200;49.232;9.222;2023-02-28T05:39:37;6.03;;;4.17;;
20080;SDS011;10200;49.232;9.222;2023-02-28T05:42:03;7.23;;;4.57;;
20080;SDS011;10200;49.232;9.222;2023-02-28T05:44:29;6.30;;;4.13;;
20080;SDS011;10200;49.232;9.222;2023-02-28T05:46:55;5.90;;;4.63;;
20080;SDS011;10200;49.232;9.222;2023-02-28T05:49:21;5.07;;;4.00;;
20080;SDS011;10200;49.232;9.222;2023-02-28T05:51:47;5.63;;;4.30;;
20080;SDS011;10200;49.232;9.222;2023-02-28T05:54:12;6.10;;;4.70;;
20080;SDS011;10200;49.232;9.222;2023-02-28T05:56:39;7.20;;;4.07;;
20080;SDS011;10200;49.232;9.222;2023-02-28T05:59:09;7.97;;;4.93;;
20080;SDS011;10200;49.232;9.222;2023-02-28T06:01:36;7.07;;;5.10;;
20080;SDS011;10200;49.232;9.222;2023-02-28T06:04:04;6.27;;;4.47;;
20080;SDS011;10200;49.232;9.222;2023-02-28T06:06:31;6.87;;;3.93;;
20080;SDS011;10200;49.232;9.222;2023-02-28T06:08:59;6.67;;;4.90;;
20080;SDS011;10200;49.232;9.222;2023-02-28T06:11:25;5.23;;;3.97;;
20080;SDS011;10200;49.232;9.222;2023-02-28T06:13:55;9.07;;;4.83;;
20080;SDS011;10200;49.232;9.222;2023-02-28T06:16:24;6.90;;;4.57;;
20080;SDS011;10200;49.232;9.222;2023-02-28T06:18:51;4.77;;;4.00;;
20080;SDS011;10200;49.232;9.222;2023-02-28T06:21:17;6.77;;;4.93;;
20080;SDS011;10200;49.232;9.222;2023-02-28T06:23:44;6.33;;;4.60;;
20080;SDS011;10200;49.232;9.222;2023-02-28T06:26:10;7.97;;;5.83;;
20080;SDS011;10200;49.232;9.222;2023-02-28T06:28:35;7.03;;;5.03;;
20080;SDS011;10200;49.232;9.222;2023-02-28T06:31:08;6.03;;;4.40;;
20080;SDS011;10200;49.232;9.222;2023-02-28T06:33:37;9.10;;;4.60;;
20080;SDS011;10200;49.232;9.222;2023-02-28T06:36:03;5.33;;;4.20;;
20080;SDS011;10200;49.232;9.222;2023-02-28T06:38:30;6.27;;;4.63;;
20080;SDS011;10200;49.232;9.222;2023-02-28T06:40:57;7.60;;;5.20;;
20080;SDS011;10200;49.232;9.222;2023-02-28T06:43:24;6.97;;;4.27;;
20080;SDS011;10200;49.232;9.222;2023-02-28T06:45:50;7.33;;;4.77;;
20080;SDS011;10200;49.232;9.222;2023-02-28T06:48:18;5.97;;;4.50;;
20080;SDS011;10200;49.232;9.222;2023-02-28T06:50:44;6.53;;;4.40;;
20080;SDS011;10200;49.232;9.222;2023-02-28T06:53:09;6.23;;;4.43;;
20080;SDS011;10200;49.232;9.222;2023-02-28T06:55:37;5.43;;;3.97;;
20080;SDS011;10200;49.232;9.222;2023-02-28T06:58:03;7.40;;;4.87;;
20080;SDS011;10200;49.232;9.222;2023-02-28T07:00:42;6.63;;;4.57;;
20080;SDS011;10200;49.232;9.222;2023-02-28T07:03:10;6.20;;;4.63;;
20080;SDS011;10200;49.232;9.222;2023-02-28T07:05:36;4.50;;;3.40;;
20080;SDS011;10200;49.232;9.222;2023-02-28T07:08:03;10.63;;;4.37;;
20080;SDS011;10200;49.232;9.222;2023-02-28T07:10:30;5.03;;;3.60;;
20080;SDS011;10200;49.232;9.222;2023-02-28T07:12:55;5.27;;;3.50;;
20080;SDS011;10200;49.232;9.222;2023-02-28T07:15:21;5.77;;;4.20;;
20080;SDS011;10200;49.232;9.222;2023-02-28T07:17:46;6.33;;;4.00;;
20080;SDS011;10200;49.232;9.222;2023-02-28T07:20:12;6.00;;;3.70;;
20080;SDS011;10200;49.232;9.222;2023-02-28T07:22:38;5.83;;;3.87;;
20080;SDS011;10200;49.232;9.222;2023-02-28T07:25:04;6.57;;;4.33;;
20080;SDS011;10200;49.232;9.222;2023-02-28T07:27:30;7.83;;;4.30;;
20080;SDS011;10200;49.232;9.222;2023-02-28T07:29:55;6.00;;;3.70;;
20080;SDS011;10200;49.232;9.222;2023-02-28T07:32:21;5.83;;;4.10;;
20080;SDS011;10200;49.232;9.222;2023-02-28T07:34:47;9.70;;;4.57;;
20080;SDS011;10200;49.232;9.222;2023-02-28T07:37:13;6.03;;;4.27;;
20080;SDS011;10200;49.232;9.222;2023-02-28T07:39:39;4.67;;;3.70;;
20080;SDS011;10200;49.232;9.222;2023-02-28T07:42:07;6.03;;;4.07;;
20080;SDS011;10200;49.232;9.222;2023-02-28T07:44:36;6.30;;;3.87;;
20080;SDS011;10200;49.232;9.222;2023-02-28T07:47:05;4.93;;;3.60;;
20080;SDS011;10200;49.232;9.222;2023-02-28T07:49:31;5.40;;;3.87;;
20080;SDS011;10200;49.232;9.222;2023-02-28T07:51:57;5.67;;;4.30;;
20080;SDS011;10200;49.232;9.222;2023-02-28T07:54:23;5.53;;;3.97;;
20080;SDS011;10200;49.232;9.222;2023-02-28T07:56:48;5.83;;;3.83;;
20080;SDS011;10200;49.232;9.222;2023-02-28T07:59:14;8.60;;;4.93;;
20080;SDS011;10200;49.232;9.222;2023-02-28T08:01:40;6.63;;;4.57;;
20080;SDS011;10200;49.232;9.222;2023-02-28T08:04:05;9.07;;;4.37;;
20080;SDS011;10200;49.232;9.222;2023-02-28T08:06:31;5.73;;;4.03;;
20080;SDS011;10200;49.232;9.222;2023-02-28T08:08:56;9.70;;;4.70;;
20080;SDS011;10200;49.232;9.222;2023-02-28T08:11:22;6.03;;;4.43;;
20080;SDS011;10200;49.232;9.222;2023-02-28T08:13:48;6.67;;;4.90;;
20080;SDS011;10200;49.232;9.222;2023-02-28T08:16:14;7.80;;;4.83;;
20080;SDS011;10200;49.232;9.222;2023-02-28T08:18:42;8.17;;;4.83;;
20080;SDS011;10200;49.232;9.222;2023-02-28T08:21:08;8.47;;;4.43;;
20080;SDS011;10200;49.232;9.222;2023-02-28T08:23:35;7.43;;;4.77;;
20080;SDS011;10200;49.232;9.222;2023-02-28T08:26:00;6.37;;;4.90;;
20080;SDS011;10200;49.232;9.222;2023-02-28T08:28:26;5.17;;;4.23;;
20080;SDS011;10200;49.232;9.222;2023-02-28T08:30:52;7.87;;;5.33;;
20080;SDS011;10200;49.232;9.222;2023-02-28T08:33:18;10.07;;;5.17;;
20080;SDS011;10200;49.232;9.222;2023-02-28T08:35:44;6.77;;;4.93;;
20080;SDS011;10200;49.232;9.222;2023-02-28T08:38:10;5.97;;;4.53;;
20080;SDS011;10200;49.232;9.222;2023-02-28T08:40:35;7.60;;;4.93;;
20080;SDS011;10200;49.232;9.222;2023-02-28T08:43:01;5.93;;;4.40;;
20080;SDS011;10200;49.232;9.222;2023-02-28T08:45:26;7.07;;;5.00;;
20080;SDS011;10200;49.232;9.222;2023-02-28T08:47:53;7.10;;;4.63;;
20080;SDS011;10200;49.232;9.222;2023-02-28T08:50:20;8.67;;;5.07;;
20080;SDS011;10200;49.232;9.222;2023-02-28T08:52:46;6.93;;;5.40;;
20080;SDS011;10200;49.232;9.222;2023-02-28T08:55:12;7.83;;;4.87;;
20080;SDS011;10200;49.232;9.222;2023-02-28T08:57:37;5.47;;;4.57;;
20080;SDS011;10200;49.232;9.222;2023-02-28T09:00:03;6.90;;;4.80;;
20080;SDS011;10200;49.232;9.222;2023-02-28T09:02:29;6.33;;;5.07;;
20080;SDS011;10200;49.232;9.222;2023-02-28T09:04:56;11.90;;;5.87;;
20080;SDS011;10200;49.232;9.222;2023-02-28T09:07:22;7.33;;;4.73;;
20080;SDS011;10200;49.232;9.222;2023-02-28T09:09:49;7.17;;;5.33;;
20080;SDS011;10200;49.232;9.222;2023-02-28T09:12:21;10.53;;;5.50;;
20080;SDS011;10200;49.232;9.222;2023-02-28T09:14:48;7.90;;;5.67;;
20080;SDS011;10200;49.232;9.222;2023-02-28T09:17:13;8.07;;;4.63;;
20080;SDS011;10200;49.232;9.222;2023-02-28T09:19:40;7.33;;;5.27;;
20080;SDS011;10200;49.232;9.222;2023-02-28T09:22:05;7.67;;;4.90;;
20080;SDS011;10200;49.232;9.222;2023-02-28T09:24:31;6.43;;;4.50;;
20080;SDS011;10200;49.232;9.222;2023-02-28T09:26:56;8.97;;;5.47;;
20080;SDS011;10200;49.232;9.222;2023-02-28T09:29:22;7.20;;;5.10;;
20080;SDS011;10200;49.232;9.222;2023-02-28T09:31:48;9.13;;;5.63;;
20080;SDS011;10200;49.232;9.222;2023-02-28T09:34:14;8.40;;;5.37;;
20080;SDS011;10200;49.232;9.222;2023-02-28T09:36:40;8.83;;;5.83;;
20080;SDS011;10200;49.232;9.222;2023-02-28T09:39:06;7.60;;;4.93;;
20080;SDS011;10200;49.232;9.222;2023-02-28T09:41:36;7.77;;;5.90;;
20080;SDS011;10200;49.232;9.222;2023-02-28T09:44:12;5.80;;;4.40;;
20080;SDS011;10200;49.232;9.222;2023-02-28T09:46:48;7.27;;;5.53;;
20080;SDS011;10200;49.232;9.222;2023-02-28T09:49:19;7.80;;;5.20;;
20080;SDS011;10200;49.232;9.222;2023-02-28T09:52:01;8.50;;;5.17;;
20080;SDS011;10200;49.232;9.222;2023-02-28T09:54:35;8.10;;;5.57;;
20080;SDS011;10200;49.232;9.222;2023-02-28T09:57:06;8.83;;;6.07;;
20080;SDS011;10200;49.232;9.222;2023-02-28T10:02:37;7.30;;;5.10;;
20080;SDS011;10200;49.232;9.222;2023-02-28T10:05:13;11.33;;;6.03;;
20080;SDS011;10200;49.232;9.222;2023-02-28T10:10:29;7.87;;;5.70;;
20080;SDS011;10200;49.232;9.222;2023-02-28T10:12:59;8.20;;;5.90;;
20080;SDS011;10200;49.232;9.222;2023-02-28T10:15:27;8.23;;;5.40;;
20080;SDS011;10200;49.232;9.222;2023-02-28T10:18:03;8.77;;;5.33;;
20080;SDS011;10200;49.232;9.222;2023-02-28T10:20:37;8.40;;;6.30;;
20080;SDS011;10200;49.232;9.222;2023-02-28T10:23:48;10.27;;;5.40;;
20080;SDS011;10200;49.232;9.222;2023-02-28T10:25:59;8.40;;;5.83;;
20080;SDS011;10200;49.232;9.222;2023-02-28T10:28:29;9.70;;;5.90;;
20080;SDS011;10200;49.232;9.222;2023-02-28T10:30:56;8.70;;;5.60;;
20080;SDS011;10200;49.232;9.222;2023-02-28T10:35:50;8.70;;;5.73;;
20080;SDS011;10200;49.232;9.222;2023-02-28T10:38:19;9.03;;;6.10;;
20080;SDS011;10200;49.232;9.222;2023-02-28T10:40:50;8.73;;;6.00;;
20080;SDS011;10200;49.232;9.222;2023-02-28T10:56:04;9.53;;;6.13;;
20080;SDS011;10200;49.232;9.222;2023-02-28T11:01:37;8.63;;;6.53;;
20080;SDS011;10200;49.232;9.222;2023-02-28T11:09:44;8.37;;;6.07;;
20080;SDS011;10200;49.232;9.222;2023-02-28T11:12:20;8.13;;;5.87;;
20080;SDS011;10200;49.232;9.222;2023-02-28T11:14:54;11.03;;;6.83;;
20080;SDS011;10200;49.232;9.222;2023-02-28T11:17:28;12.57;;;6.37;;
20080;SDS011;10200;49.232;9.222;2023-02-28T11:19:59;9.80;;;6.30;;
20080;SDS011;10200;49.232;9.222;2023-02-28T11:22:30;8.93;;;6.27;;
20080;SDS011;10200;49.232;9.222;2023-02-28T11:24:59;8.60;;;6.50;;
20080;SDS011;10200;49.232;9.222;2023-02-28T11:29:55;9.60;;;6.77;;
20080;SDS011;10200;49.232;9.222;2023-02-28T11:32:22;10.03;;;6.87;;
20080;SDS011;10200;49.232;9.222;2023-02-28T11:35:35;9.53;;;6.07;;
20080;SDS011;10200;49.232;9.222;2023-02-28T11:37:35;10.10;;;6.30;;
20080;SDS011;10200;49.232;9.222;2023-02-28T11:40:02;12.93;;;7.03;;
20080;SDS011;10200;49.232;9.222;2023-02-28T11:56:15;9.80;;;6.70;;
20080;SDS011;10200;49.232;9.222;2023-02-28T12:12:25;10.80;;;6.83;;
20080;SDS011;10200;49.232;9.222;2023-02-28T12:17:49;12.67;;;7.97;;
20080;SDS011;10200;49.232;9.222;2023-02-28T12:20:53;9.50;;;6.77;;
20080;SDS011;10200;49.232;9.222;2023-02-28T12:26:16;11.77;;;7.40;;
20080;SDS011;10200;49.232;9.222;2023-02-28T12:28:59;10.50;;;6.03;;
20080;SDS011;10200;49.232;9.222;2023-02-28T12:31:38;12.73;;;7.30;;
20080;SDS011;10200;49.232;9.222;2023-02-28T12:34:11;10.10;;;7.30;;
20080;SDS011;10200;49.232;9.222;2023-02-28T12:36:41;10.67;;;7.27;;
20080;SDS011;10200;49.232;9.222;2023-02-28T12:39:16;9.67;;;6.90;;
20080;SDS011;10200;49.232;9.222;2023-02-28T12:41:47;14.67;;;8.17;;
20080;SDS011;10200;49.232;9.222;2023-02-28T12:44:20;8.93;;;6.73;;
20080;SDS011;10200;49.232;9.222;2023-02-28T12:46:54;10.27;;;7.13;;
20080;SDS011;10200;49.232;9.222;2023-02-28T12:49:25;10.70;;;7.03;;
20080;SDS011;10200;49.232;9.222;2023-02-28T12:51:56;8.93;;;6.73;;
20080;SDS011;10200;49.232;9.222;2023-02-28T12:57:19;9.63;;;6.60;;
20080;SDS011;10200;49.232;9.222;2023-02-28T13:00:04;8.77;;;6.47;;
20080;SDS011;10200;49.232;9.222;2023-02-28T13:10:51;9.83;;;7.40;;
20080;SDS011;10200;49.232;9.222;2023-02-28T13:13:20;11.23;;;7.27;;
20080;SDS011;10200;49.232;9.222;2023-02-28T13:16:08;9.67;;;6.60;;
20080;SDS011;10200;49.232;9.222;2023-02-28T13:29:02;11.57;;;7.93;;
20080;SDS011;10200;49.232;9.222;2023-02-28T13:34:30;11.17;;;6.87;;
20080;SDS011;10200;49.232;9.222;2023-02-28T13:50:22;13.57;;;7.30;;
20080;SDS011;10200;49.232;9.222;2023-02-28T13:55:29;11.20;;;7.27;;
20080;SDS011;10200;49.232;9.222;2023-02-28T13:58:15;13.07;;;7.83;;
20080;SDS011;10200;49.232;9.222;2023-02-28T14:01:08;11.73;;;7.50;;
20080;SDS011;10200;49.232;9.222;2023-02-28T14:11:34;8.80;;;7.67;;
20080;SDS011;10200;49.232;9.222;2023-02-28T14:14:01;12.50;;;8.07;;
20080;SDS011;10200;49.232;9.222;2023-02-28T14:16:43;11.20;;;7.50;;
20080;SDS011;10200;49.232;9.222;2023-02-28T14:19:12;9.47;;;7.70;;
20080;SDS011;10200;49.232;9.222;2023-02-28T14:21:48;11.10;;;7.67;;
20080;SDS011;10200;49.232;9.222;2023-02-28T14:38:24;10.80;;;7.37;;
20080;SDS011;10200;49.232;9.222;2023-02-28T14:40:54;11.77;;;7.73;;
20080;SDS011;10200;49.232;9.222;2023-02-28T14:43:26;18.20;;;9.50;;
20080;SDS011;10200;49.232;9.222;2023-02-28T14:45:57;15.13;;;9.67;;
20080;SDS011;10200;49.232;9.222;2023-02-28T14:48:25;8.63;;;7.07;;
20080;SDS011;10200;49.232;9.222;2023-02-28T14:50:53;10.57;;;7.27;;
20080;SDS011;10200;49.232;9.222;2023-02-28T14:53:25;10.10;;;7.03;;
20080;SDS011;10200;49.232;9.222;2023-02-28T14:55:53;13.07;;;7.43;;
20080;SDS011;10200;49.232;9.222;2023-02-28T15:00:51;10.43;;;7.23;;
20080;SDS011;10200;49.232;9.222;2023-02-28T15:03:29;10.03;;;6.97;;
20080;SDS011;10200;49.232;9.222;2023-02-28T15:05:58;10.10;;;7.60;;
20080;SDS011;10200;49.232;9.222;2023-02-28T15:08:25;10.70;;;6.83;;
20080;SDS011;10200;49.232;9.222;2023-02-28T15:11:07;10.97;;;6.60;;
20080;SDS011;10200;49.232;9.222;2023-02-28T15:13:51;11.57;;;7.17;;
20080;SDS011;10200;49.232;9.222;2023-02-28T15:16:21;8.47;;;6.20;;
20080;SDS011;10200;49.232;9.222;2023-02-28T15:19:02;11.40;;;7.83;;
20080;SDS011;10200;49.232;9.222;2023-02-28T15:21:36;9.70;;;6.93;;
20080;SDS011;10200;49.232;9.222;2023-02-28T15:24:05;9.90;;;6.27;;
20080;SDS011;10200;49.232;9.222;2023-02-28T15:26:59;11.30;;;7.37;;
20080;SDS011;10200;49.232;9.222;2023-02-28T15:29:29;8.13;;;6.50;;
20080;SDS011;10200;49.232;9.222;2023-02-28T15:32:00;13.53;;;7.77;;
20080;SDS011;10200;49.232;9.222;2023-02-28T15:34:42;10.30;;;7.37;;
20080;SDS011;10200;49.232;9.222;2023-02-28T15:39:56;11.27;;;7.63;;
20080;SDS011;10200;49.232;9.222;2023-02-28T15:42:29;16.77;;;10.83;;
20080;SDS011;10200;49.232;9.222;2023-02-28T15:44:56;22.47;;;13.17;;
20080;SDS011;10200;49.232;9.222;2023-02-28T15:47:23;15.37;;;9.20;;
20080;SDS011;10200;49.232;9.222;2023-02-28T15:49:57;10.63;;;7.50;;
20080;SDS011;10200;49.232;9.222;2023-02-28T15:54:52;9.63;;;6.77;;
20080;SDS011;10200;49.232;9.222;2023-02-28T15:57:28;9.57;;;6.10;;
20080;SDS011;10200;49.232;9.222;2023-02-28T15:59:55;7.87;;;6.50;;
20080;SDS011;10200;49.232;9.222;2023-02-28T16:02:35;9.53;;;6.87;;
20080;SDS011;10200;49.232;9.222;2023-02-28T16:07:27;10.07;;;6.23;;
20080;SDS011;10200;49.232;9.222;2023-02-28T16:09:53;9.50;;;6.03;;
20080;SDS011;10200;49.232;9.222;2023-02-28T16:12:20;10.87;;;6.77;;
20080;SDS011;10200;49.232;9.222;2023-02-28T16:14:47;9.47;;;6.53;;
20080;SDS011;10200;49.232;9.222;2023-02-28T16:17:19;13.23;;;7.00;;
20080;SDS011;10200;49.232;9.222;2023-02-28T16:19:47;8.87;;;6.57;;
20080;SDS011;10200;49.232;9.222;2023-02-28T16:22:12;13.57;;;7.83;;
20080;SDS011;10200;49.232;9.222;2023-02-28T16:24:38;11.27;;;7.53;;
20080;SDS011;10200;49.232;9.222;2023-02-28T16:27:05;8.23;;;6.13;;
20080;SDS011;10200;49.232;9.222;2023-02-28T16:29:32;10.23;;;6.53;;
20080;SDS011;10200;49.232;9.222;2023-02-28T16:32:00;8.17;;;5.97;;
20080;SDS011;10200;49.232;9.222;2023-02-28T16:34:26;8.67;;;6.60;;
20080;SDS011;10200;49.232;9.222;2023-02-28T16:36:52;10.03;;;6.90;;
20080;SDS011;10200;49.232;9.222;2023-02-28T16:39:18;9.33;;;6.60;;
20080;SDS011;10200;49.232;9.222;2023-02-28T16:41:47;10.63;;;6.10;;
20080;SDS011;10200;49.232;9.222;2023-02-28T16:44:35;10.30;;;6.47;;
20080;SDS011;10200;49.232;9.222;2023-02-28T16:47:01;11.17;;;6.50;;
20080;SDS011;10200;49.232;9.222;2023-02-28T16:49:28;11.53;;;8.10;;
20080;SDS011;10200;49.232;9.222;2023-02-28T16:51:53;10.40;;;6.83;;
20080;SDS011;10200;49.232;9.222;2023-02-28T16:54:19;11.57;;;6.40;;
20080;SDS011;10200;49.232;9.222;2023-02-28T16:56:45;7.83;;;6.20;;
20080;SDS011;10200;49.232;9.222;2023-02-28T16:59:12;10.27;;;6.37;;
20080;SDS011;10200;49.232;9.222;2023-02-28T17:01:46;14.27;;;7.13;;
20080;SDS011;10200;49.232;9.222;2023-02-28T17:04:12;11.50;;;6.63;;
20080;SDS011;10200;49.232;9.222;2023-02-28T17:06:39;8.83;;;6.77;;
20080;SDS011;10200;49.232;9.222;2023-02-28T17:09:05;10.07;;;6.83;;
20080;SDS011;10200;49.232;9.222;2023-02-28T17:11:33;10.83;;;6.63;;
20080;SDS011;10200;49.232;9.222;2023-02-28T17:13:59;12.43;;;6.50;;
20080;SDS011;10200;49.232;9.222;2023-02-28T17:16:28;11.87;;;7.17;;
20080;SDS011;10200;49.232;9.222;2023-02-28T17:18:57;9.87;;;6.47;;
20080;SDS011;10200;49.232;9.222;2023-02-28T17:21:36;9.90;;;6.80;;
20080;SDS011;10200;49.232;9.222;2023-02-28T17:24:01;9.60;;;6.30;;
20080;SDS011;10200;49.232;9.222;2023-02-28T17:26:28;10.43;;;7.50;;
20080;SDS011;10200;49.232;9.222;2023-02-28T17:28:54;11.90;;;7.57;;
20080;SDS011;10200;49.232;9.222;2023-02-28T17:31:22;9.90;;;6.53;;
20080;SDS011;10200;49.232;9.222;2023-02-28T17:33:52;10.83;;;7.63;;
20080;SDS011;10200;49.232;9.222;2023-02-28T17:36:23;12.00;;;7.83;;
20080;SDS011;10200;49.232;9.222;2023-02-28T17:38:50;11.30;;;7.67;;
20080;SDS011;10200;49.232;9.222;2023-02-28T17:41:17;11.27;;;7.13;;
20080;SDS011;10200;49.232;9.222;2023-02-28T17:43:43;10.90;;;8.13;;
20080;SDS011;10200;49.232;9.222;2023-02-28T17:46:14;11.90;;;7.13;;
20080;SDS011;10200;49.232;9.222;2023-02-28T17:48:46;12.50;;;7.90;;
20080;SDS011;10200;49.232;9.222;2023-02-28T17:51:13;12.80;;;7.70;;